Aggdal, Sweden

4:43 AM CET on February 21, 2017 (GMT +0100)
Kungälv Municipality | | Change Station

Elev 0 ft 57.87 °N, 11.73 °E | Updated 2 minutes ago

Clear
Clear
38.5 °F
Feels Like 37 °F
N
3.1
Wind Variable Wind from West
Gusts 13.7 mph

Today
High -- | Low -- °F
--% Chance of Precip.
Yesterday
High -- | Low -- °F
Precip. -- in
Pressure 29.24 in
Visibility -9999.0 miles
Clouds
Windchill 37 °F
Dew Point 37 °F
Humidity 93%
Rainfall 0.00 in
Snow Depth Not available.
7:28 AM 5:26 PM
Waning Crescent, 29% visible
METAR ESGG 210320Z 26016KT CAVOK 04/01 Q0990 R21/29//95
Pressure 29.24 in
Visibility -9999.0 miles
Clouds
Windchill 37 °F
Dew Point 37 °F
Humidity 93%
Rainfall 0.00 in
Snow Depth Not available.
7:28 AM 5:26 PM
Waning Crescent, 29% visible
METAR ESGG 210320Z 26016KT CAVOK 04/01 Q0990 R21/29//95

Get Your Daily Forecast Email!

Thanks for signing up!

Be on the lookout for a verification email in your inbox.

You'll start receiving the daily forecast at 8 AM.

×

10-Day Weather Forecast

×

Almanac

Astronomy

Feb. 21, 2017 Rise Set
Actual Time
Civil Twilight
Nautical Twilight
Astronomical Twilight
Moon
Length of Visible Light
Length of Day
Tomorrow will be .
, % of the Moon is Illuminated

Today's Extremes

Country Highs Country Lows

Community

WunderPhotos

Upload Photos

1,962,540 photos uploaded!

WunderBlog® & News

Nearby

Air Quality

  Air Quality AQ Index Pollutant
Not available.

Snow Depth

Station Depth Elevation

Earthquake Activity

City Distance Mag. Time & Date
Minimum magnitude displayed is 2.5.

Coastal Water Temperatures

Place Temperature

Stations

Nearby Weather Stations

Station Location Temp. Windchill Dew Point Humidity Wind Precip. Elev Updated Type